Amsden, Ohio
Current Conditions -  °F | °C
As of 6:29 PM on Monday 20 Oct 2014 (Local Time) from KFDY Reporting Station
Overcast Overcast  
Wind Chill: 55°   Ceiling: 2800
Heat Index: 55°   Visibility: 7mi
Dew Point: 52°   Wind: 6mph
Humidity: 89%   Direction: 230°SW
Pressure: 29.83"   Gusts: NA
Location:  41.22°N, 83.33°W
Report Text: KFDY 202229Z AUTO 23005KT 7SM SCT012 OVC028 13/11 A2983 RMK AO2 T01280111
Loading
Personal Weather Stations






























Interactive Weather Map
Tropical Storm Tracking
New forecast layout! Learn more

10-Day Weather Forecast

Advertisements
Track Severe Weather on mobile